Time;durP1;ratioP1;P1;durP2;ratioP2;P2;SDS_P1;SDS_P2;PMS_P1;PMS_P2;Temp;Humidity;BMP_temperature;BMP_pressure;BME280_temperature;BME280_humidity;BME280_pressure;Samples;Min_cycle;Max_cycle;Signal;HPM_P1;HPM_P2
2022/09/10 00:01:14;;;;;;;14.18;12.55;;;;;;;21.51;100.00;99239.22;5109741;28;20566;-54
2022/09/10 00:03:42;;;;;;;16.52;13.00;;;;;;;21.50;100.00;99236.72;5109990;28;20662;-54
2022/09/10 00:06:10;;;;;;;13.95;12.52;;;;;;;21.46;100.00;99240.53;5109824;28;20210;-57
2022/09/10 00:08:38;;;;;;;13.43;12.23;;;;;;;21.34;100.00;99229.13;5109955;28;20194;-54
2022/09/10 00:11:08;;;;;;;14.50;12.95;;;;;;;21.29;100.00;99218.09;5109724;28;20214;-55
2022/09/10 00:13:38;;;;;;;13.73;12.40;;;;;;;21.27;100.00;99214.72;5109718;28;20194;-54
2022/09/10 00:16:07;;;;;;;14.68;13.13;;;;;;;21.28;100.00;99232.25;5108529;28;20214;-55
2022/09/10 00:18:34;;;;;;;15.13;13.65;;;;;;;21.24;100.00;99236.06;5109390;28;20222;-54
2022/09/10 00:21:06;;;;;;;14.57;13.23;;;;;;;21.19;100.00;99235.63;5109911;28;20625;-55
2022/09/10 00:23:33;;;;;;;14.10;12.77;;;;;;;21.13;100.00;99226.31;5109709;28;20198;-55
2022/09/10 00:26:00;;;;;;;13.70;12.13;;;;;;;21.03;100.00;99242.00;5109843;28;20195;-54
2022/09/10 00:28:28;;;;;;;14.18;13.07;;;;;;;21.02;100.00;99245.59;5109692;28;20698;-55
2022/09/10 00:30:56;;;;;;;14.38;12.95;;;;;;;20.98;100.00;99244.19;5109672;28;20289;-55
2022/09/10 00:33:24;;;;;;;15.57;14.02;;;;;;;20.91;100.00;99234.19;5109534;28;20282;-54
2022/09/10 00:35:51;;;;;;;16.30;13.93;;;;;;;20.81;100.00;99244.59;5109705;28;20692;-58
2022/09/10 00:38:19;;;;;;;14.63;13.38;;;;;;;20.80;100.00;99242.91;5109607;28;20226;-54
2022/09/10 00:40:46;;;;;;;14.68;13.32;;;;;;;20.80;100.00;99253.47;5112000;28;20674;-57
2022/09/10 00:43:14;;;;;;;14.32;13.02;;;;;;;20.85;100.00;99243.41;5113535;28;20290;-56
2022/09/10 00:45:43;;;;;;;15.93;13.40;;;;;;;20.93;100.00;99243.69;5113557;28;20701;-58
2022/09/10 00:48:18;;;;;;;14.88;13.52;;;;;;;21.03;100.00;99238.53;5113443;28;20198;-54
2022/09/10 00:50:47;;;;;;;14.63;13.48;;;;;;;21.05;100.00;99239.28;5113451;28;20200;-57
2022/09/10 00:53:17;;;;;;;15.35;13.80;;;;;;;21.05;100.00;99252.47;5113613;28;20199;-53
2022/09/10 00:55:49;;;;;;;19.08;14.63;;;;;;;21.06;100.00;99250.66;5113484;28;20195;-56
2022/09/10 00:58:18;;;;;;;15.80;13.32;;;;;;;20.99;100.00;99227.38;5113312;28;20721;-57
2022/09/10 01:00:46;;;;;;;15.30;14.00;;;;;;;21.09;100.00;99253.91;5113105;28;20198;-53
2022/09/10 01:03:18;;;;;;;17.83;15.40;;;;;;;21.14;100.00;99261.47;5112999;28;20209;-52
2022/09/10 01:05:47;;;;;;;19.27;15.23;;;;;;;21.07;100.00;99261.09;5113277;28;20693;-54
2022/09/10 01:08:15;;;;;;;19.33;15.70;;;;;;;20.97;100.00;99255.69;5113097;28;20569;-55
2022/09/10 01:11:08;;;;;;;19.83;16.55;;;;;;;20.91;100.00;99244.75;5112988;28;20201;-54
2022/09/10 01:13:47;;;;;;;19.38;16.35;;;;;;;20.98;100.00;99238.91;5112982;28;20195;-54
2022/09/10 01:16:24;;;;;;;21.25;16.05;;;;;;;20.98;100.00;99238.06;5113000;28;20205;-57
2022/09/10 01:18:58;;;;;;;17.95;16.20;;;;;;;20.87;100.00;99241.50;5112959;28;20521;-54
2022/09/10 01:21:32;;;;;;;21.63;16.63;;;;;;;20.88;100.00;99243.16;5112706;28;20210;-54
2022/09/10 01:24:31;;;;;;;18.88;16.88;;;;;;;20.76;100.00;99245.91;5112850;28;20209;-54
2022/09/10 01:27:29;;;;;;;17.98;15.50;;;;;;;20.74;100.00;99235.47;5112924;28;20190;-54
2022/09/10 01:30:03;;;;;;;19.80;16.25;;;;;;;20.70;100.00;99220.81;5112651;28;20681;-53
2022/09/10 01:32:39;;;;;;;22.45;16.88;;;;;;;20.64;100.00;99250.31;5112467;28;20714;-53
2022/09/10 01:35:14;;;;;;;18.42;16.73;;;;;;;20.49;100.00;99251.44;5112687;28;20194;-53
2022/09/10 01:37:47;;;;;;;19.73;16.33;;;;;;;20.41;100.00;99249.38;5112588;28;20218;-54
2022/09/10 01:40:16;;;;;;;19.00;16.85;;;;;;;20.45;100.00;99248.16;5112261;28;20190;-54
2022/09/10 01:42:45;;;;;;;19.02;16.88;;;;;;;20.31;100.00;99243.88;5112236;28;20588;-53
2022/09/10 01:45:15;;;;;;;19.67;17.77;;;;;;;20.15;100.00;99213.50;5112455;28;20198;-53
2022/09/10 01:48:15;;;;;;;21.48;16.40;;;;;;;20.28;100.00;99233.56;5112433;28;20588;-54
2022/09/10 01:50:49;;;;;;;18.70;16.70;;;;;;;20.29;100.00;99234.41;5112182;28;20195;-53
2022/09/10 01:53:46;;;;;;;24.00;17.23;;;;;;;20.29;100.00;99248.44;5111359;28;20198;-54
2022/09/10 01:56:27;;;;;;;19.70;17.67;;;;;;;20.17;100.00;99230.88;5112210;28;20191;-55
2022/09/10 01:59:03;;;;;;;19.77;17.17;;;;;;;20.29;100.00;99245.81;5112268;28;20732;-57
2022/09/10 02:01:36;;;;;;;18.52;16.67;;;;;;;20.25;100.00;99241.69;5112115;28;20194;-57
2022/09/10 02:04:08;;;;;;;19.15;16.95;;;;;;;20.21;100.00;99240.22;5112661;28;20713;-58
2022/09/10 02:06:39;;;;;;;17.40;15.80;;;;;;;20.26;100.00;99221.44;5112195;28;20646;-57
2022/09/10 02:09:07;;;;;;;18.10;16.40;;;;;;;20.31;100.00;99217.50;5112366;28;20191;-57
2022/09/10 02:11:46;;;;;;;19.02;15.88;;;;;;;20.31;100.00;99201.69;5111862;28;20206;-54
2022/09/10 02:14:15;;;;;;;19.65;15.73;;;;;;;20.41;100.00;99215.09;5111644;28;20286;-54
2022/09/10 02:16:47;;;;;;;18.52;16.63;;;;;;;20.34;100.00;99207.69;5111825;28;20286;-54
2022/09/10 02:19:16;;;;;;;17.55;16.08;;;;;;;20.52;100.00;99230.13;5111565;28;20819;-54
2022/09/10 02:21:43;;;;;;;22.58;17.40;;;;;;;20.61;100.00;99237.34;5111696;28;20195;-57
2022/09/10 02:24:12;;;;;;;18.13;16.23;;;;;;;20.59;100.00;99245.34;5111769;28;20209;-54
2022/09/10 02:26:42;;;;;;;21.50;17.13;;;;;;;20.59;100.00;99249.78;5111655;28;20726;-54
2022/09/10 02:29:14;;;;;;;31.65;17.17;;;;;;;20.68;100.00;99251.75;5111672;28;20289;-57
2022/09/10 02:31:43;;;;;;;20.90;16.30;;;;;;;20.50;100.00;99224.09;5111683;28;20206;-56
2022/09/10 02:34:10;;;;;;;22.52;17.23;;;;;;;20.65;100.00;99252.81;5111459;28;20230;-56
2022/09/10 02:36:38;;;;;;;18.92;17.13;;;;;;;20.64;100.00;99258.22;5111313;28;20195;-56
2022/09/10 02:39:06;;;;;;;18.88;16.67;;;;;;;20.61;100.00;99254.00;5111190;28;20806;-54
2022/09/10 02:41:34;;;;;;;18.65;16.67;;;;;;;20.59;100.00;99248.00;5111518;28;20581;-53
2022/09/10 02:44:02;;;;;;;22.58;16.90;;;;;;;20.63;100.00;99245.97;5111442;28;20706;-56
2022/09/10 02:46:29;;;;;;;19.48;17.48;;;;;;;20.43;100.00;99209.72;5111196;28;20693;-57
2022/09/10 02:48:58;;;;;;;18.60;16.73;;;;;;;20.62;100.00;99229.31;5111066;28;20201;-56
2022/09/10 02:51:25;;;;;;;19.70;17.10;;;;;;;20.65;100.00;99234.34;5110830;28;20209;-57
2022/09/10 02:53:53;;;;;;;20.02;17.17;;;;;;;20.59;100.00;99232.19;5110973;28;20272;-57
2022/09/10 02:56:20;;;;;;;20.90;17.83;;;;;;;20.51;100.00;99250.38;5111137;28;20206;-58
2022/09/10 02:58:47;;;;;;;22.60;16.77;;;;;;;20.30;100.00;99246.63;5111067;28;20359;-54
2022/09/10 03:01:17;;;;;;;23.05;16.75;;;;;;;20.29;100.00;99239.69;5110728;28;20210;-56
2022/09/10 03:03:50;;;;;;;19.25;17.15;;;;;;;20.33;100.00;99249.03;5111066;28;20674;-57
2022/09/10 03:06:20;;;;;;;18.60;16.77;;;;;;;20.31;100.00;99246.50;5110777;28;20194;-54
2022/09/10 03:08:47;;;;;;;20.40;16.75;;;;;;;20.36;100.00;99248.84;5110945;28;20198;-57
2022/09/10 03:11:15;;;;;;;17.77;15.98;;;;;;;20.31;100.00;99256.22;5110859;28;20199;-57
2022/09/10 03:13:44;;;;;;;21.30;16.65;;;;;;;20.23;100.00;99266.47;5110958;28;20226;-57
2022/09/10 03:16:12;;;;;;;19.08;16.00;;;;;;;20.19;100.00;99272.94;5110795;28;20285;-58
2022/09/10 03:18:39;;;;;;;19.15;15.80;;;;;;;20.17;100.00;99265.13;5110425;28;20631;-52
2022/09/10 03:21:11;;;;;;;17.55;15.75;;;;;;;20.17;100.00;99262.50;5110568;28;20287;-56
2022/09/10 03:23:40;;;;;;;18.27;16.50;;;;;;;20.24;100.00;99250.53;5110773;28;20206;-56
2022/09/10 03:26:09;;;;;;;19.98;16.13;;;;;;;20.28;100.00;99249.38;5110771;28;20202;-56
2022/09/10 03:28:36;;;;;;;18.42;16.55;;;;;;;20.30;100.00;99247.47;5110533;28;20190;-54
2022/09/10 03:31:03;;;;;;;19.20;17.20;;;;;;;20.32;100.00;99242.06;5110287;28;20198;-54
2022/09/10 03:33:31;;;;;;;18.25;16.35;;;;;;;20.16;100.00;99231.81;5110008;28;20237;-52
2022/09/10 03:35:58;;;;;;;18.50;16.40;;;;;;;20.18;100.00;99244.91;5110489;28;20198;-53
2022/09/10 03:38:26;;;;;;;18.73;16.92;;;;;;;20.04;100.00;99248.50;5110122;28;20228;-53
2022/09/10 03:40:55;;;;;;;19.50;17.15;;;;;;;19.82;100.00;99222.03;5110218;28;20195;-53
2022/09/10 03:43:22;;;;;;;18.10;16.33;;;;;;;19.89;100.00;99236.44;5110067;28;20278;-53
2022/09/10 03:45:50;;;;;;;21.50;16.45;;;;;;;19.92;100.00;99257.28;5109968;28;20206;-53
2022/09/10 03:48:18;;;;;;;17.45;15.75;;;;;;;19.85;100.00;99256.06;5110052;28;20197;-54
2022/09/10 03:50:45;;;;;;;16.98;15.43;;;;;;;19.81;100.00;99257.22;5110108;28;20208;-53
2022/09/10 03:53:13;;;;;;;17.55;15.63;;;;;;;19.77;100.00;99255.75;5108974;28;20678;-56
2022/09/10 03:55:40;;;;;;;19.65;15.50;;;;;;;19.75;100.00;99250.56;5109025;28;20635;-55
2022/09/10 03:58:08;;;;;;;17.90;16.05;;;;;;;19.70;100.00;99246.59;5108820;28;20633;-56
2022/09/10 04:00:36;;;;;;;19.95;15.27;;;;;;;19.71;100.00;99250.91;5109739;28;20202;-56
2022/09/10 04:03:03;;;;;;;17.15;15.32;;;;;;;19.70;100.00;99244.81;5110362;28;20689;-56
2022/09/10 04:05:30;;;;;;;21.15;16.45;;;;;;;19.69;100.00;99252.81;5109782;28;20203;-57
2022/09/10 04:07:58;;;;;;;18.45;15.32;;;;;;;19.69;100.00;99256.28;5110079;28;20646;-55
2022/09/10 04:10:25;;;;;;;17.70;16.05;;;;;;;19.77;100.00;99239.94;5109845;28;20214;-56
2022/09/10 04:12:53;;;;;;;17.63;15.77;;;;;;;19.88;100.00;99248.75;5109722;28;20686;-56
2022/09/10 04:15:22;;;;;;;22.50;16.00;;;;;;;19.91;100.00;99239.81;5111930;28;20202;-55
2022/09/10 04:17:50;;;;;;;17.50;15.50;;;;;;;20.09;100.00;99250.84;5114625;28;20194;-55
2022/09/10 04:20:18;;;;;;;22.73;15.60;;;;;;;20.24;100.00;99249.72;5114016;28;20244;-57
2022/09/10 04:22:45;;;;;;;18.67;15.43;;;;;;;20.11;100.00;99236.56;5114229;28;20233;-56
2022/09/10 04:25:12;;;;;;;24.00;16.33;;;;;;;20.22;100.00;99255.09;5113541;28;20198;-53
2022/09/10 04:27:39;;;;;;;18.95;16.55;;;;;;;20.37;100.00;99257.59;5113864;28;20261;-54
2022/09/10 04:30:08;;;;;;;20.90;15.82;;;;;;;20.39;100.00;99250.41;5113863;28;20194;-53
2022/09/10 04:32:37;;;;;;;16.52;14.88;;;;;;;20.48;100.00;99261.13;5113489;28;20242;-54
2022/09/10 04:35:05;;;;;;;17.45;15.23;;;;;;;20.45;100.00;99245.53;5113776;28;20702;-57
2022/09/10 04:37:33;;;;;;;16.50;15.00;;;;;;;20.66;100.00;99261.56;5113528;28;20283;-56
2022/09/10 04:40:00;;;;;;;16.40;14.90;;;;;;;20.81;100.00;99249.03;5112990;28;20221;-56
2022/09/10 04:42:27;;;;;;;17.02;15.27;;;;;;;21.09;100.00;99247.78;5111929;28;20195;-57
2022/09/10 04:44:54;;;;;;;16.02;14.50;;;;;;;21.38;100.00;99251.72;5110150;28;20598;-57
2022/09/10 04:47:22;;;;;;;22.45;15.27;;;;;;;21.57;100.00;99249.31;5113664;28;20573;-56
2022/09/10 04:49:50;;;;;;;18.35;14.85;;;;;;;21.72;100.00;99250.75;5113703;28;20190;-56
2022/09/10 04:52:17;;;;;;;17.10;15.30;;;;;;;21.79;100.00;99239.69;5113166;28;20666;-56
2022/09/10 04:54:44;;;;;;;17.42;14.65;;;;;;;21.89;100.00;99244.16;5113619;28;20726;-56
2022/09/10 04:57:11;;;;;;;18.73;15.68;;;;;;;21.98;100.00;99246.09;5113830;28;20203;-56
2022/09/10 04:59:38;;;;;;;18.50;15.55;;;;;;;22.16;100.00;99245.56;5113163;28;20218;-56
2022/09/10 05:02:05;;;;;;;18.83;15.82;;;;;;;22.40;100.00;99249.69;5113229;28;20203;-56
2022/09/10 05:04:33;;;;;;;21.17;15.18;;;;;;;23.20;98.96;99253.66;5113022;28;20194;-54
2022/09/10 05:07:02;;;;;;;16.00;14.38;;;;;;;24.59;91.25;99254.63;5113169;27;20685;-54
2022/09/10 05:09:30;;;;;;;19.38;13.90;;;;;;;25.86;82.84;99261.34;5113032;28;20225;-54
2022/09/10 05:11:57;;;;;;;18.58;13.20;;;;;;;26.99;75.66;99286.56;5113083;28;20198;-55
2022/09/10 05:14:25;;;;;;;19.98;13.35;;;;;;;27.45;72.81;99298.72;5113114;28;20198;-55
2022/09/10 05:16:52;;;;;;;13.88;12.70;;;;;;;27.98;69.96;99294.22;5113089;28;20195;-55
2022/09/10 05:19:19;;;;;;;13.95;11.32;;;;;;;28.63;66.42;99289.09;5111866;28;20242;-54
2022/09/10 05:21:47;;;;;;;12.20;11.13;;;;;;;29.44;62.95;99279.28;5111294;28;20199;-56
2022/09/10 05:24:15;;;;;;;13.15;11.77;;;;;;;30.06;59.55;99274.06;5110359;28;20606;-56
2022/09/10 05:26:46;;;;;;;11.52;10.45;;;;;;;30.42;58.56;99279.75;5108524;28;20194;-54
2022/09/10 05:29:13;;;;;;;11.88;10.70;;;;;;;31.19;55.37;99282.41;5111065;28;20281;-54
2022/09/10 05:31:41;;;;;;;21.77;11.32;;;;;;;31.83;52.49;99269.34;5108753;28;20662;-57
2022/09/10 05:34:08;;;;;;;19.63;11.43;;;;;;;32.46;51.07;99291.03;5109832;28;20222;-57
2022/09/10 05:36:35;;;;;;;23.70;11.93;;;;;;;32.97;48.64;99296.31;5103796;28;20296;-57
2022/09/10 05:39:04;;;;;;;16.70;11.68;;;;;;;32.86;48.01;99285.22;5109177;28;20687;-57
2022/09/10 05:41:33;;;;;;;15.90;11.88;;;;;;;32.59;47.67;99281.44;5111422;28;20261;-57
2022/09/10 05:44:00;;;;;;;12.85;11.43;;;;;;;31.54;50.62;99284.41;5113047;28;20217;-57
2022/09/10 05:46:29;;;;;;;17.50;12.77;;;;;;;30.99;52.73;99287.41;5111363;28;20273;-57
2022/09/10 05:48:57;;;;;;;14.88;11.30;;;;;;;30.98;52.77;99291.94;5111188;28;20191;-56
2022/09/10 05:51:27;;;;;;;14.73;11.27;;;;;;;30.75;53.37;99291.09;5111131;28;20757;-57
2022/09/10 05:53:54;;;;;;;13.73;11.25;;;;;;;30.33;54.10;99287.00;5112605;28;20283;-57
2022/09/10 05:56:21;;;;;;;17.60;12.55;;;;;;;30.68;53.57;99292.84;5112246;28;20194;-57
2022/09/10 05:58:49;;;;;;;16.10;11.75;;;;;;;30.54;53.96;99289.06;5111270;28;20218;-59
2022/09/10 06:01:16;;;;;;;19.10;12.13;;;;;;;31.49;50.78;99289.47;5112259;28;20674;-59
2022/09/10 06:03:43;;;;;;;13.90;12.43;;;;;;;32.66;47.58;99288.53;5112059;28;20285;-59
2022/09/10 06:06:10;;;;;;;16.90;12.60;;;;;;;34.03;44.49;99299.78;5112009;28;20198;-60
2022/09/10 06:08:38;;;;;;;14.95;11.25;;;;;;;35.21;40.95;99294.75;5111451;28;20198;-60
2022/09/10 06:11:06;;;;;;;17.25;11.88;;;;;;;35.46;40.05;99294.09;5112131;28;20232;-61
2022/09/10 06:13:34;;;;;;;16.27;11.77;;;;;;;35.08;41.00;99291.19;5111584;28;20198;-60
2022/09/10 06:16:03;;;;;;;18.23;11.85;;;;;;;35.14;40.34;99288.50;5111680;28;20597;-59
2022/09/10 06:18:30;;;;;;;19.83;11.55;;;;;;;34.86;40.73;99298.66;5112057;28;20670;-58
2022/09/10 06:21:05;;;;;;;14.90;11.18;;;;;;;33.97;42.61;99265.59;5111555;28;20195;-61
2022/09/10 06:23:32;;;;;;;14.18;11.60;;;;;;;32.84;45.60;99287.31;5111490;28;20190;-61
2022/09/10 06:26:02;;;;;;;22.95;11.70;;;;;;;31.39;49.44;99279.00;5112232;28;20658;-55
2022/09/10 06:28:30;;;;;;;22.50;12.77;;;;;;;29.92;54.90;99280.94;5111382;28;20201;-53
2022/09/10 06:30:56;;;;;;;14.00;12.20;;;;;;;28.99;58.74;99274.47;5111700;28;20595;-54
2022/09/10 06:33:25;;;;;;;16.77;13.73;;;;;;;28.52;61.71;99288.41;5109498;28;20313;-53
2022/09/10 06:35:53;;;;;;;15.15;12.90;;;;;;;28.55;61.74;99297.94;5109015;28;20282;-54
2022/09/10 06:38:20;;;;;;;15.45;12.85;;;;;;;28.50;61.85;99303.75;5105940;28;20191;-54
2022/09/10 06:40:53;;;;;;;22.63;11.75;;;;;;;28.45;62.66;99289.22;5110280;28;20305;-54
2022/09/10 06:43:22;;;;;;;13.23;11.20;;;;;;;28.51;62.87;99275.22;5107906;28;20199;-53
2022/09/10 06:45:51;;;;;;;18.85;11.80;;;;;;;29.04;60.54;99273.94;5110576;28;20198;-54
2022/09/10 06:48:20;;;;;;;13.55;11.48;;;;;;;29.53;58.87;99272.91;5110234;28;20618;-53
2022/09/10 06:50:53;;;;;;;17.23;11.85;;;;;;;29.55;58.02;99276.25;5108841;28;20199;-55
2022/09/10 06:53:21;;;;;;;13.15;11.90;;;;;;;29.79;57.57;99274.50;5107982;28;20234;-55
2022/09/10 06:55:49;;;;;;;13.70;11.52;;;;;;;29.91;56.63;99278.47;5106756;28;20198;-55
2022/09/10 06:58:18;;;;;;;18.65;12.48;;;;;;;29.93;56.59;99279.13;5109527;28;20194;-56
2022/09/10 07:00:49;;;;;;;19.60;12.30;;;;;;;30.61;54.87;99281.16;5110046;28;20254;-55
2022/09/10 07:03:16;;;;;;;21.10;11.90;;;;;;;32.26;49.26;99275.72;5110402;28;20194;-55
2022/09/10 07:05:44;;;;;;;12.20;11.00;;;;;;;32.97;46.38;99247.91;5109807;28;20193;-55
2022/09/10 07:08:15;;;;;;;14.70;11.20;;;;;;;33.18;45.45;99266.69;5107944;28;20654;-53
2022/09/10 07:10:44;;;;;;;20.33;12.98;;;;;;;33.13;44.99;99269.16;5110387;28;20289;-55
2022/09/10 07:13:12;;;;;;;13.93;12.45;;;;;;;33.30;44.96;99272.41;5107527;28;20195;-57
2022/09/10 07:15:44;;;;;;;17.23;12.02;;;;;;;32.39;46.44;99275.88;5109529;28;20187;-56
2022/09/10 07:18:13;;;;;;;13.43;12.05;;;;;;;31.14;50.54;99282.13;5107890;28;20719;-56
2022/09/10 07:20:39;;;;;;;17.13;13.25;;;;;;;31.05;51.74;99287.50;5108920;28;20215;-58
2022/09/10 07:23:07;;;;;;;13.82;12.40;;;;;;;32.20;48.73;99298.75;5110120;28;20588;-55
2022/09/10 07:25:35;;;;;;;14.77;11.43;;;;;;;34.07;43.57;99314.53;5109908;28;20194;-55
2022/09/10 07:28:03;;;;;;;15.07;11.77;;;;;;;36.25;38.95;99324.47;5109830;28;20290;-57
2022/09/10 07:30:30;;;;;;;18.63;12.32;;;;;;;37.49;36.39;99329.31;5109036;28;20676;-58
2022/09/10 07:32:57;;;;;;;12.77;11.18;;;;;;;37.78;34.98;99325.13;5109410;28;20252;-57
2022/09/10 07:35:25;;;;;;;14.77;10.88;;;;;;;38.77;33.72;99327.47;5109792;28;20605;-57
2022/09/10 07:37:52;;;;;;;12.68;10.68;;;;;;;39.40;32.44;99326.06;5110141;28;20190;-58
2022/09/10 07:40:19;;;;;;;9.82;8.73;;;;;;;39.89;31.62;99324.81;5109889;28;20312;-58
2022/09/10 07:42:47;;;;;;;11.95;8.02;;;;;;;40.02;31.02;99315.56;5110057;28;20194;-58
2022/09/10 07:45:15;;;;;;;8.68;7.55;;;;;;;40.17;30.38;99305.00;5109935;28;20285;-58
2022/09/10 07:47:43;;;;;;;9.30;8.40;;;;;;;40.05;30.53;99293.34;5110205;28;20194;-58
2022/09/10 07:50:10;;;;;;;8.48;7.70;;;;;;;40.45;29.82;99294.16;5109021;28;20198;-57
2022/09/10 07:52:37;;;;;;;8.35;7.57;;;;;;;41.55;28.50;99296.34;5109967;28;20273;-58
2022/09/10 07:55:05;;;;;;;9.60;8.20;;;;;;;40.97;28.49;99292.09;5110316;28;20583;-58
2022/09/10 07:57:36;;;;;;;9.18;8.50;;;;;;;41.10;28.77;99293.69;5109775;28;20190;-58
2022/09/10 08:00:10;;;;;;;8.43;7.65;;;;;;;40.99;28.57;99287.25;5109796;28;20313;-58
2022/09/10 08:02:37;;;;;;;9.55;8.68;;;;;;;41.29;28.32;99280.69;5109723;28;20193;-58
2022/09/10 08:05:05;;;;;;;10.32;9.05;;;;;;;40.28;29.46;99289.75;5109819;28;20198;-56
2022/09/10 08:07:32;;;;;;;11.07;9.80;;;;;;;38.29;32.70;99275.94;5109550;28;20208;-56
2022/09/10 08:09:59;;;;;;;13.82;9.23;;;;;;;36.41;35.52;99266.41;5109961;28;20295;-56
2022/09/10 08:12:26;;;;;;;10.80;8.63;;;;;;;35.20;38.15;99278.75;5109549;28;20277;-56
2022/09/10 08:14:53;;;;;;;11.90;9.05;;;;;;;34.95;39.05;99275.84;5109975;28;20213;-55
2022/09/10 08:17:22;;;;;;;11.93;10.00;;;;;;;34.58;40.07;99285.28;5109846;28;20692;-58
2022/09/10 08:19:49;;;;;;;10.85;8.73;;;;;;;34.95;39.63;99282.06;5109626;28;20681;-56
2022/09/10 08:22:17;;;;;;;11.82;9.07;;;;;;;34.88;39.92;99285.78;5109621;28;20213;-57
2022/09/10 08:24:45;;;;;;;10.77;9.00;;;;;;;35.18;39.08;99281.66;5109541;28;20198;-57
2022/09/10 08:27:11;;;;;;;10.45;9.55;;;;;;;35.80;37.84;99285.75;5109975;28;20689;-57
2022/09/10 08:29:39;;;;;;;9.27;8.50;;;;;;;36.76;36.32;99283.06;5109477;28;20230;-57
2022/09/10 08:32:06;;;;;;;10.05;9.07;;;;;;;36.12;37.09;99283.16;5109530;28;20202;-58
2022/09/10 08:34:35;;;;;;;10.77;8.05;;;;;;;35.06;39.40;99260.91;5109545;28;20666;-58
2022/09/10 08:37:02;;;;;;;10.88;10.02;;;;;;;34.04;41.53;99283.44;5109939;28;20646;-57
2022/09/10 08:39:29;;;;;;;10.13;8.82;;;;;;;33.06;44.22;99276.34;5109497;28;20229;-57
2022/09/10 08:42:00;;;;;;;10.75;9.60;;;;;;;32.94;44.71;99277.88;5109698;28;20195;-56
2022/09/10 08:44:33;;;;;;;11.05;10.05;;;;;;;32.54;46.08;99278.47;5109592;28;20190;-55
2022/09/10 08:47:06;;;;;;;12.35;9.23;;;;;;;32.33;47.32;99268.53;5109686;28;20198;-57
2022/09/10 08:49:40;;;;;;;14.90;10.80;;;;;;;31.84;47.93;99261.09;5109870;28;20221;-57
2022/09/10 08:52:16;;;;;;;10.27;9.23;;;;;;;31.63;49.21;99253.78;5109968;28;20584;-55
2022/09/10 08:54:51;;;;;;;11.57;9.38;;;;;;;31.34;49.50;99243.03;5108631;28;20613;-54
2022/09/10 08:57:25;;;;;;;10.80;9.52;;;;;;;31.20;50.34;99236.63;5108486;28;20214;-54
2022/09/10 08:59:54;;;;;;;11.77;9.38;;;;;;;31.14;50.80;99234.69;5088866;28;20230;-53
2022/09/10 09:02:27;;;;;;;17.45;9.77;;;;;;;31.02;51.51;99236.94;5091917;28;20714;-53
2022/09/10 09:04:59;;;;;;;10.68;9.60;;;;;;;30.89;51.92;99217.97;5092778;28;20199;-53
2022/09/10 09:07:36;;;;;;;10.68;9.68;;;;;;;30.86;52.04;99226.38;5092762;28;20282;-57
2022/09/10 09:10:05;;;;;;;12.32;9.52;;;;;;;30.88;51.83;99210.94;5093891;28;20198;-53
2022/09/10 09:12:37;;;;;;;11.77;9.13;;;;;;;30.71;52.37;99212.06;5092717;28;20287;-53
2022/09/10 09:15:11;;;;;;;10.60;9.65;;;;;;;30.75;52.51;99218.75;5101717;28;20191;-53
2022/09/10 09:18:02;;;;;;;11.48;10.25;;;;;;;31.08;51.54;99208.56;5113172;28;20222;-54
2022/09/10 09:20:43;;;;;;;12.57;10.20;;;;;;;31.15;51.41;99206.88;5113292;28;20229;-57
2022/09/10 09:23:20;;;;;;;11.32;10.15;;;;;;;31.21;50.75;99192.72;5113159;28;20198;-57
2022/09/10 09:25:48;;;;;;;10.27;9.02;;;;;;;31.44;50.08;99198.00;5113613;28;20198;-57
2022/09/10 09:28:22;;;;;;;17.70;10.40;;;;;;;30.88;50.65;99189.50;5113224;28;20190;-57
2022/09/10 09:30:52;;;;;;;11.75;10.32;;;;;;;30.73;51.95;99190.47;5113241;28;20198;-57
2022/09/10 09:33:22;;;;;;;10.50;9.57;;;;;;;30.31;53.44;99187.25;5112860;28;20594;-57
2022/09/10 09:35:56;;;;;;;10.93;9.88;;;;;;;30.18;53.39;99178.97;5112601;28;20194;-56
2022/09/10 09:38:25;;;;;;;10.77;9.70;;;;;;;30.64;52.38;99174.47;5112896;28;20191;-56
2022/09/10 09:40:55;;;;;;;13.55;9.88;;;;;;;30.29;52.99;99162.50;5112787;28;20317;-54
2022/09/10 09:43:35;;;;;;;15.60;9.63;;;;;;;30.71;52.57;99160.34;5112049;28;20190;-53
2022/09/10 09:46:03;;;;;;;12.45;10.02;;;;;;;31.02;51.45;99164.56;5112112;28;20194;-54
2022/09/10 09:48:37;;;;;;;12.45;9.55;;;;;;;30.99;51.12;99164.09;5112011;28;20210;-54
2022/09/10 09:51:11;;;;;;;13.70;10.88;;;;;;;30.87;51.85;99149.47;5112517;28;20190;-54
2022/09/10 09:53:39;;;;;;;12.88;10.25;;;;;;;30.83;51.55;99148.16;5112788;28;20195;-53
2022/09/10 09:56:14;;;;;;;11.75;10.57;;;;;;;30.68;51.95;99142.81;5112443;28;20199;-55
2022/09/10 09:58:47;;;;;;;11.45;10.23;;;;;;;30.60;52.07;99134.81;5112010;28;20281;-54
2022/09/10 10:01:20;;;;;;;14.70;10.35;;;;;;;30.35;52.31;99130.69;5111555;28;20225;-55
2022/09/10 10:03:57;;;;;;;11.38;9.82;;;;;;;30.28;53.07;99126.03;5111833;28;20187;-56
2022/09/10 10:06:27;;;;;;;15.38;10.90;;;;;;;30.16;53.13;99114.06;5096674;28;20243;-55
2022/09/10 10:08:58;;;;;;;13.60;11.13;;;;;;;30.10;53.75;99117.47;5108560;28;20742;-55
2022/09/10 10:11:42;;;;;;;12.95;10.88;;;;;;;29.92;53.68;99116.88;5111147;28;20225;-54
2022/09/10 10:14:21;;;;;;;11.98;10.93;;;;;;;29.84;53.53;99115.09;5109922;28;20202;-54
2022/09/10 10:16:51;;;;;;;12.93;9.68;;;;;;;29.81;53.39;99114.59;5110812;28;20216;-55
2022/09/10 10:19:30;;;;;;;11.32;10.23;;;;;;;29.84;53.70;99111.59;5108282;28;20195;-54
2022/09/10 10:22:19;;;;;;;11.40;10.27;;;;;;;29.87;53.71;99104.06;5102356;28;20220;-54
2022/09/10 10:24:48;;;;;;;14.05;10.30;;;;;;;29.89;53.85;99107.38;5091270;28;20579;-54
2022/09/10 10:27:17;;;;;;;13.45;11.15;;;;;;;29.99;53.43;99109.84;5091383;28;20702;-54
2022/09/10 10:29:53;;;;;;;12.10;10.85;;;;;;;29.68;54.16;99084.94;5106174;28;20199;-54
2022/09/10 10:32:20;;;;;;;13.43;10.60;;;;;;;29.69;54.41;99095.44;5107826;28;20222;-55
2022/09/10 10:34:57;;;;;;;15.70;9.82;;;;;;;29.72;54.71;99088.91;5110107;28;20195;-55
2022/09/10 10:37:35;;;;;;;16.75;10.18;;;;;;;29.82;54.85;99084.16;5110108;28;20247;-54
2022/09/10 10:40:18;;;;;;;13.52;10.00;;;;;;;29.95;54.49;99071.91;5108925;28;20604;-57
2022/09/10 10:42:58;;;;;;;13.85;10.32;;;;;;;30.19;54.34;99070.06;5109870;28;20190;-56
2022/09/10 10:45:37;;;;;;;12.75;10.32;;;;;;;30.11;53.82;99070.13;5109882;28;20686;-54
2022/09/10 10:48:11;;;;;;;19.65;10.48;;;;;;;30.06;54.36;99070.66;5109101;28;20195;-54
2022/09/10 10:50:47;;;;;;;11.27;10.05;;;;;;;30.09;54.41;99056.91;5111206;28;20194;-54
2022/09/10 10:53:29;;;;;;;18.52;10.00;;;;;;;30.19;54.01;99060.16;5111178;28;20198;-54
2022/09/10 10:56:03;;;;;;;10.27;9.45;;;;;;;30.09;53.94;99059.59;5110988;28;20226;-54
2022/09/10 10:58:47;;;;;;;11.70;10.43;;;;;;;30.08;54.37;99060.59;5111069;28;20276;-54
2022/09/10 11:01:20;;;;;;;11.75;10.15;;;;;;;30.14;53.57;99034.94;5110878;28;20305;-55
2022/09/10 11:03:55;;;;;;;10.88;9.75;;;;;;;30.35;53.01;99047.66;5111020;28;20194;-54
2022/09/10 11:06:27;;;;;;;20.52;10.25;;;;;;;30.27;53.36;99045.88;5110791;28;20205;-55
2022/09/10 11:09:01;;;;;;;11.90;9.95;;;;;;;30.15;54.11;99031.25;5111020;28;20199;-55
2022/09/10 11:11:33;;;;;;;13.18;9.50;;;;;;;30.10;53.27;99039.00;5110738;28;20190;-55
2022/09/10 11:14:12;;;;;;;12.32;9.93;;;;;;;30.10;53.26;99037.16;5111296;28;20660;-57
2022/09/10 11:16:45;;;;;;;12.18;9.38;;;;;;;30.11;52.96;99036.16;5111018;28;20289;-57
2022/09/10 11:19:19;;;;;;;13.38;9.82;;;;;;;30.08;53.34;99033.84;5111235;28;20652;-55
2022/09/10 11:21:52;;;;;;;15.05;9.93;;;;;;;30.05;54.64;99028.00;5111256;28;20218;-58
2022/09/10 11:24:25;;;;;;;12.57;8.85;;;;;;;30.12;54.08;99032.47;5110496;28;20222;-58
2022/09/10 11:26:58;;;;;;;16.45;9.73;;;;;;;30.10;54.50;99029.16;5110841;28;20199;-58
2022/09/10 11:29:35;;;;;;;13.18;9.48;;;;;;;30.02;55.98;99033.75;5110789;28;20202;-56
2022/09/10 11:32:06;;;;;;;10.65;9.75;;;;;;;29.91;55.95;99018.91;5110378;28;20202;-56